NH17 weather

Zim Airport
Mason, New Hampshire, United States

Public forecast

Using degrees Fahrenheit for public forecast. Weather courtesy of forecast.io.

Closest aviation weather report (METAR) to Zim Airport

Closest report is Boire Field, 9.5 nm (17.6 km) ENE. Retrieved 2020/08/06 11:56 UTC (17 minutes ago):

KASH 061156Z 00000KT 10SM FEW070 18/16 A3013 RMK AO2 SLP208 T01830156 10183 20139 51015

Closest aviation forecast (TAF) to Zim Airport

Closest forecast is Manchester-Boston Regional Airport, 17.5 nm (32.4 km) NE. Retrieved 2020/08/06 12:22 UTC (0 seconds ago):

TAF KMHT 061120Z 0612/0712 VRB03KT P6SM SCT250 FM061400 25008KT P6SM SCT250 FM070000 VRB03KT P6SM BKN250